Time;durP1;ratioP1;P1;durP2;ratioP2;P2;SDS_P1;SDS_P2;PMS_P1;PMS_P2;Temp;Humidity;BMP_temperature;BMP_pressure;BME280_temperature;BME280_humidity;BME280_pressure;Samples;Min_cycle;Max_cycle;Signal;HPM_P1;HPM_P2
2023/10/10 00:00:23;;;;;;;19.25;9.43;;;;;;;;;;5133986;27;20021;-73
2023/10/10 00:02:52;;;;;;;31.48;11.10;;;;;;;;;;5132503;27;20026;-73
2023/10/10 00:05:18;;;;;;;19.85;9.27;;;;;;;;;;5136372;27;20014;-73
2023/10/10 00:07:44;;;;;;;36.88;10.57;;;;;;;;;;5134229;27;20075;-73
2023/10/10 00:10:13;;;;;;;28.65;11.35;;;;;;;;;;5130566;27;20436;-73
2023/10/10 00:12:39;;;;;;;26.13;11.27;;;;;;;;;;5127738;27;20016;-73
2023/10/10 00:15:20;;;;;;;26.48;10.73;;;;;;;;;;5123850;27;20023;-73
2023/10/10 00:17:46;;;;;;;22.42;10.82;;;;;;;;;;5135989;27;20499;-73
2023/10/10 00:20:21;;;;;;;32.38;11.68;;;;;;;;;;5134400;27;20050;-73
2023/10/10 00:22:48;;;;;;;22.67;11.07;;;;;;;;;;5129267;27;20027;-73
2023/10/10 00:25:23;;;;;;;20.73;10.43;;;;;;;;;;5133024;27;20133;-73
2023/10/10 00:27:55;;;;;;;22.38;10.05;;;;;;;;;;5131245;27;20036;-73
2023/10/10 00:30:22;;;;;;;27.17;11.43;;;;;;;;;;5135140;27;20031;-73
2023/10/10 00:32:47;;;;;;;29.38;11.00;;;;;;;;;;5131220;27;20015;-73
2023/10/10 00:35:12;;;;;;;25.25;11.35;;;;;;;;;;5134465;27;20028;-73
2023/10/10 00:37:38;;;;;;;25.98;11.13;;;;;;;;;;5136994;27;20378;-73
2023/10/10 00:40:08;;;;;;;27.77;11.53;;;;;;;;;;5134854;27;20015;-73
2023/10/10 00:42:42;;;;;;;23.33;10.68;;;;;;;;;;5130844;27;20332;-73
2023/10/10 00:45:14;;;;;;;23.42;11.52;;;;;;;;;;5127655;27;20118;-73
2023/10/10 00:47:40;;;;;;;31.83;12.30;;;;;;;;;;5138477;27;20383;-73
2023/10/10 00:50:15;;;;;;;23.63;10.93;;;;;;;;;;5133554;27;20019;-73
2023/10/10 00:52:41;;;;;;;25.95;11.30;;;;;;;;;;5133544;27;20032;-73
2023/10/10 00:55:06;;;;;;;29.88;11.27;;;;;;;;;;5136331;27;20015;-73
2023/10/10 00:57:35;;;;;;;28.58;10.90;;;;;;;;;;5131034;27;20027;-73
2023/10/10 01:00:07;;;;;;;24.25;10.82;;;;;;;;;;5137031;27;20049;-73
2023/10/10 01:02:32;;;;;;;25.48;10.45;;;;;;;;;;5132754;27;20027;-73
2023/10/10 01:05:04;;;;;;;28.73;10.88;;;;;;;;;;5128957;27;20673;-73
2023/10/10 01:07:29;;;;;;;22.98;10.90;;;;;;;;;;5135515;27;20026;-73
2023/10/10 01:12:20;;;;;;;21.00;9.82;;;;;;;;;;5131270;27;20024;-73
2023/10/10 01:14:46;;;;;;;20.15;10.05;;;;;;;;;;5130542;27;20022;-73
2023/10/10 01:17:14;;;;;;;21.08;10.30;;;;;;;;;;5129623;27;20163;-73
2023/10/10 01:19:43;;;;;;;21.60;9.90;;;;;;;;;;5131557;27;20019;-73
2023/10/10 01:22:22;;;;;;;23.27;9.85;;;;;;;;;;5134092;27;20389;-73
2023/10/10 01:24:51;;;;;;;27.45;9.52;;;;;;;;;;5138438;27;20019;-73
2023/10/10 01:27:21;;;;;;;26.70;9.73;;;;;;;;;;5128397;27;20007;-73
2023/10/10 01:30:17;;;;;;;28.15;10.82;;;;;;;;;;5134578;27;20007;-73
2023/10/10 01:32:39;;;;;;;27.67;10.38;;;;;;;;;;5135094;27;20034;-73
2023/10/10 01:35:16;;;;;;;25.45;10.60;;;;;;;;;;5129501;27;20159;-73
2023/10/10 01:37:41;;;;;;;26.15;10.60;;;;;;;;;;5137132;27;20036;-73
2023/10/10 01:42:44;;;;;;;21.27;10.02;;;;;;;;;;5136745;27;20292;-73
2023/10/10 01:45:10;;;;;;;25.13;10.02;;;;;;;;;;5118824;27;20041;-73
2023/10/10 01:47:35;;;;;;;24.35;10.63;;;;;;;;;;5133244;27;20517;-73
2023/10/10 01:50:13;;;;;;;29.20;10.80;;;;;;;;;;5135959;27;20015;-73
2023/10/10 01:52:45;;;;;;;24.88;9.55;;;;;;;;;;5135395;27;20019;-73
2023/10/10 01:55:11;;;;;;;22.40;10.32;;;;;;;;;;5127761;27;20080;-73
2023/10/10 01:57:36;;;;;;;22.73;9.90;;;;;;;;;;5131484;27;20011;-73
2023/10/10 02:00:19;;;;;;;20.05;10.05;;;;;;;;;;5134271;27;20031;-73
2023/10/10 02:02:45;;;;;;;21.17;9.68;;;;;;;;;;5134859;27;20079;-73
2023/10/10 02:05:11;;;;;;;24.80;10.68;;;;;;;;;;5130950;27;20026;-73
2023/10/10 02:07:39;;;;;;;26.60;10.38;;;;;;;;;;5134801;27;20068;-73
2023/10/10 02:12:34;;;;;;;31.15;10.50;;;;;;;;;;5127377;27;20011;-73
2023/10/10 02:15:01;;;;;;;20.00;9.27;;;;;;;;;;5130644;27;20015;-73
2023/10/10 02:17:29;;;;;;;23.27;10.65;;;;;;;;;;5132742;27;20097;-73
2023/10/10 02:19:59;;;;;;;22.65;10.60;;;;;;;;;;5134345;27;20015;-73
2023/10/10 02:22:33;;;;;;;;;;;;;;;;;;5126308;27;20486;-73
2023/10/10 02:27:56;;;;;;;27.63;11.77;;;;;;;;;;5132052;27;20446;-73
2023/10/10 02:30:34;;;;;;;30.67;11.05;;;;;;;;;;5131231;27;20023;-73
2023/10/10 02:33:00;;;;;;;26.08;12.05;;;;;;;;;;5131657;27;20459;-73
2023/10/10 02:35:27;;;;;;;38.42;11.63;;;;;;;;;;5129169;27;20076;-73
2023/10/10 02:37:54;;;;;;;37.47;13.55;;;;;;;;;;5134757;27;20015;-73
2023/10/10 02:40:19;;;;;;;22.98;10.48;;;;;;;;;;5134264;27;20015;-73
2023/10/10 02:42:50;;;;;;;27.50;12.63;;;;;;;;;;5128757;27;20023;-73
2023/10/10 02:45:16;;;;;;;21.02;11.32;;;;;;;;;;5132739;27;20030;-73
2023/10/10 02:47:46;;;;;;;33.35;12.48;;;;;;;;;;5128508;27;20011;-73
2023/10/10 02:50:39;;;;;;;27.80;11.57;;;;;;;;;;5130279;27;20030;-73
2023/10/10 02:53:00;;;;;;;34.17;13.77;;;;;;;;;;5132504;27;20050;-73
2023/10/10 02:55:33;;;;;;;37.42;14.60;;;;;;;;;;5132108;27;20019;-73
2023/10/10 02:57:59;;;;;;;41.72;14.52;;;;;;;;;;5131721;27;20019;-73
2023/10/10 03:00:28;;;;;;;35.05;13.48;;;;;;;;;;5128023;27;20053;-73
2023/10/10 03:02:59;;;;;;;28.30;13.00;;;;;;;;;;5126971;27;20049;-73
2023/10/10 03:05:43;;;;;;;29.92;12.10;;;;;;;;;;5130803;27;20098;-73
2023/10/10 03:08:19;;;;;;;33.95;13.68;;;;;;;;;;5133775;27;20023;-73
2023/10/10 03:10:46;;;;;;;37.75;13.77;;;;;;;;;;5129198;27;20023;-73
2023/10/10 03:15:56;;;;;;;40.47;15.15;;;;;;;;;;5136644;27;20026;-73
2023/10/10 03:18:29;;;;;;;33.58;15.02;;;;;;;;;;5135293;27;20011;-73
2023/10/10 03:21:12;;;;;;;37.22;15.90;;;;;;;;;;5133914;27;20034;-73
2023/10/10 03:23:53;;;;;;;34.58;15.52;;;;;;;;;;5133405;27;20046;-73
2023/10/10 03:26:31;;;;;;;43.00;17.85;;;;;;;;;;5131835;27;20419;-73
2023/10/10 03:29:04;;;;;;;41.25;16.95;;;;;;;;;;5138685;27;20023;-73
2023/10/10 03:31:36;;;;;;;36.75;16.40;;;;;;;;;;5132167;27;20023;-73
2023/10/10 03:34:11;;;;;;;43.70;18.60;;;;;;;;;;5135684;27;20072;-73
2023/10/10 03:36:48;;;;;;;44.13;18.38;;;;;;;;;;5134446;27;20544;-73
2023/10/10 03:39:41;;;;;;;43.85;18.33;;;;;;;;;;5130414;27;20502;-73
2023/10/10 05:23:47;;;;;;;39.50;17.08;;;;;;;;;;5123970;27;20269;-73
2023/10/10 05:26:13;;;;;;;43.70;17.65;;;;;;;;;;5128897;27;20023;-73
2023/10/10 05:28:40;;;;;;;42.65;16.77;;;;;;;;;;5126993;27;20035;-73
2023/10/10 05:31:08;;;;;;;41.00;17.23;;;;;;;;;;5115353;27;20019;-73
2023/10/10 05:33:36;;;;;;;44.95;16.63;;;;;;;;;;5126612;27;20466;-73
2023/10/10 05:36:06;;;;;;;40.25;17.42;;;;;;;;;;5122794;27;20080;-73
2023/10/10 05:38:31;;;;;;;;;;;;;;;;;;5129551;27;20407;-73
2023/10/10 05:40:57;;;;;;;40.33;17.05;;;;;;;;;;5131169;27;20276;-73
2023/10/10 05:43:33;;;;;;;45.42;18.02;;;;;;;;;;5131282;27;20047;-73
2023/10/10 05:45:59;;;;;;;45.13;16.67;;;;;;;;;;5125215;27;20015;-73
2023/10/10 05:48:26;;;;;;;49.50;16.77;;;;;;;;;;5127272;27;20026;-73
2023/10/10 05:50:51;;;;;;;47.83;18.38;;;;;;;;;;5123153;27;20090;-73
2023/10/10 05:53:16;;;;;;;41.20;17.20;;;;;;;;;;5129234;27;20098;-73
2023/10/10 05:55:43;;;;;;;36.88;16.73;;;;;;;;;;5127210;27;20271;-73
2023/10/10 05:58:08;;;;;;;43.85;17.45;;;;;;;;;;5128944;27;20042;-73
2023/10/10 06:00:36;;;;;;;40.67;18.63;;;;;;;;;;5126158;27;20023;-73
2023/10/10 06:03:02;;;;;;;47.08;18.85;;;;;;;;;;5128961;27;20080;-73
2023/10/10 06:05:29;;;;;;;33.80;15.77;;;;;;;;;;5128042;27;20462;-73
2023/10/10 06:07:54;;;;;;;43.30;17.88;;;;;;;;;;5120445;27;20043;-73
2023/10/10 06:10:20;;;;;;;38.08;16.05;;;;;;;;;;5123494;27;20020;-73
2023/10/10 06:12:46;;;;;;;37.75;15.75;;;;;;;;;;5134168;27;20492;-73
2023/10/10 06:15:11;;;;;;;38.40;16.58;;;;;;;;;;5120698;27;20027;-73
2023/10/10 06:17:38;;;;;;;41.38;16.77;;;;;;;;;;5118784;27;20390;-73
2023/10/10 06:20:07;;;;;;;46.05;16.63;;;;;;;;;;5126902;27;20110;-73
2023/10/10 06:22:33;;;;;;;37.77;16.67;;;;;;;;;;5122444;27;20478;-73
2023/10/10 06:24:58;;;;;;;50.83;18.50;;;;;;;;;;5130058;27;20430;-73
2023/10/10 06:27:28;;;;;;;47.27;16.73;;;;;;;;;;5130218;27;20257;-73
2023/10/10 06:29:53;;;;;;;;;;;;;;;;;;5128650;27;20329;-73
2023/10/10 06:32:20;;;;;;;50.67;18.33;;;;;;;;;;5130822;27;19915;-72
2023/10/10 06:34:49;;;;;;;42.55;16.70;;;;;;;;;;5122433;27;20090;-72
2023/10/10 06:37:26;;;;;;;41.22;17.08;;;;;;;;;;5126810;27;20031;-72
2023/10/10 06:39:55;;;;;;;45.83;17.38;;;;;;;;;;5126030;27;20019;-72
2023/10/10 06:42:27;;;;;;;39.22;16.02;;;;;;;;;;5133654;27;20348;-72
2023/10/10 06:44:52;;;;;;;37.42;16.70;;;;;;;;;;5130482;27;20019;-72
2023/10/10 06:47:18;;;;;;;38.00;16.40;;;;;;;;;;5134400;27;20401;-72
2023/10/10 06:49:43;;;;;;;34.67;15.60;;;;;;;;;;5129406;27;20012;-72
2023/10/10 06:52:09;;;;;;;43.75;16.95;;;;;;;;;;5134191;27;20260;-72
2023/10/10 06:54:34;;;;;;;31.27;15.13;;;;;;;;;;5133388;27;20099;-72
2023/10/10 06:59:27;;;;;;;33.33;14.53;;;;;;;;;;5132409;27;20020;-72
2023/10/10 07:01:52;;;;;;;32.33;14.13;;;;;;;;;;5134085;27;20256;-72
2023/10/10 07:04:19;;;;;;;26.80;13.35;;;;;;;;;;5134427;27;20028;-72
2023/10/10 07:06:51;;;;;;;31.95;13.88;;;;;;;;;;5133007;27;20063;-72
2023/10/10 07:09:29;;;;;;;35.15;13.05;;;;;;;;;;5132285;27;20011;-72
2023/10/10 07:12:09;;;;;;;27.40;11.98;;;;;;;;;;5133909;27;20026;-72
2023/10/10 07:14:40;;;;;;;24.00;11.85;;;;;;;;;;5125487;27;20023;-72
2023/10/10 07:17:11;;;;;;;29.10;11.45;;;;;;;;;;5130041;27;20109;-72
2023/10/10 07:19:54;;;;;;;26.05;11.48;;;;;;;;;;5132690;27;20011;-72
2023/10/10 07:22:21;;;;;;;32.78;11.35;;;;;;;;;;5123997;27;20114;-72
2023/10/10 07:24:46;;;;;;;25.35;10.93;;;;;;;;;;5130314;27;20042;-72
2023/10/10 07:27:12;;;;;;;24.70;11.07;;;;;;;;;;5132373;27;20050;-73
2023/10/10 07:32:17;;;;;;;24.25;10.95;;;;;;;;;;5128254;27;20022;-72
2023/10/10 07:34:49;;;;;;;28.63;10.63;;;;;;;;;;5133384;27;20026;-72
2023/10/10 07:37:14;;;;;;;24.25;9.82;;;;;;;;;;5133658;27;20072;-72
2023/10/10 07:39:55;;;;;;;32.42;11.20;;;;;;;;;;5133251;27;20059;-73
2023/10/10 07:42:30;;;;;;;25.95;10.55;;;;;;;;;;5132671;27;20012;-72
2023/10/10 07:45:02;;;;;;;28.95;11.82;;;;;;;;;;5131570;27;20027;-73
2023/10/10 07:47:30;;;;;;;25.85;10.45;;;;;;;;;;5133105;27;20019;-72
2023/10/10 07:49:59;;;;;;;24.63;10.30;;;;;;;;;;5132822;27;20018;-73
2023/10/10 07:52:24;;;;;;;27.77;9.80;;;;;;;;;;5132275;27;20102;-73
2023/10/10 07:54:53;;;;;;;23.20;10.15;;;;;;;;;;5133325;27;20488;-73
2023/10/10 07:57:29;;;;;;;23.38;11.02;;;;;;;;;;5126969;27;20027;-72
2023/10/10 07:59:58;;;;;;;17.73;8.80;;;;;;;;;;5132663;27;20027;-73
2023/10/10 08:04:55;;;;;;;18.10;9.13;;;;;;;;;;5125356;27;20054;-73
2023/10/10 08:07:23;;;;;;;20.83;8.30;;;;;;;;;;5128854;27;20458;-73
2023/10/10 08:09:48;;;;;;;24.88;8.50;;;;;;;;;;5128626;27;20027;-73
2023/10/10 08:12:14;;;;;;;19.33;7.78;;;;;;;;;;5130489;27;20011;-73
2023/10/10 08:14:39;;;;;;;16.65;7.63;;;;;;;;;;5131504;27;20018;-73
2023/10/10 08:17:18;;;;;;;17.88;8.15;;;;;;;;;;5132845;27;20027;-73
2023/10/10 08:19:44;;;;;;;16.35;6.90;;;;;;;;;;5130818;27;20031;-73
2023/10/10 08:22:12;;;;;;;15.85;6.53;;;;;;;;;;5130103;27;20583;-72
2023/10/10 08:24:43;;;;;;;17.30;6.40;;;;;;;;;;5132631;27;20027;-72
2023/10/10 08:27:11;;;;;;;17.60;6.90;;;;;;;;;;5126101;27;20011;-72
2023/10/10 08:29:36;;;;;;;17.15;6.82;;;;;;;;;;5132116;27;20377;-72
2023/10/10 08:32:01;;;;;;;16.57;7.23;;;;;;;;;;5131814;27;20023;-72
2023/10/10 08:34:26;;;;;;;21.40;6.23;;;;;;;;;;5131280;27;20342;-72
2023/10/10 08:36:55;;;;;;;12.75;5.68;;;;;;;;;;5132054;27;20264;-72
2023/10/10 08:41:52;;;;;;;14.35;6.45;;;;;;;;;;5132023;27;20083;-72
2023/10/10 08:44:18;;;;;;;10.77;4.85;;;;;;;;;;5132429;27;20022;-72
2023/10/10 08:46:46;;;;;;;15.93;5.82;;;;;;;;;;5131812;27;20023;-72
2023/10/10 08:49:11;;;;;;;11.13;4.80;;;;;;;;;;5129655;27;20019;-73
2023/10/10 08:51:39;;;;;;;16.65;5.18;;;;;;;;;;5131602;27;20459;-72
2023/10/10 08:54:11;;;;;;;10.77;6.03;;;;;;;;;;5132310;27;20034;-72
2023/10/10 08:56:40;;;;;;;16.48;5.78;;;;;;;;;;5130634;27;20015;-72
2023/10/10 08:59:12;;;;;;;16.33;4.47;;;;;;;;;;5124499;27;20057;-72
2023/10/10 09:01:38;;;;;;;11.23;5.13;;;;;;;;;;5131673;27;20026;-72
2023/10/10 09:04:04;;;;;;;8.85;3.15;;;;;;;;;;5123731;27;20031;-73
2023/10/10 09:06:33;;;;;;;10.82;4.35;;;;;;;;;;5129651;27;20019;-72
2023/10/10 09:09:00;;;;;;;16.73;6.25;;;;;;;;;;5131277;27;20071;-73
2023/10/10 09:11:25;;;;;;;13.50;5.20;;;;;;;;;;5127626;27;20060;-72
2023/10/10 09:13:53;;;;;;;19.65;5.05;;;;;;;;;;5129074;27;20053;-72
2023/10/10 09:16:37;;;;;;;12.45;4.93;;;;;;;;;;5129676;27;20074;-72
2023/10/10 09:19:08;;;;;;;10.88;5.53;;;;;;;;;;5131500;27;20022;-72
2023/10/10 09:21:55;;;;;;;16.77;4.68;;;;;;;;;;5131716;27;20060;-73
2023/10/10 09:24:28;;;;;;;16.52;5.20;;;;;;;;;;5126478;27;20020;-72
2023/10/10 09:26:56;;;;;;;13.40;4.85;;;;;;;;;;5129765;27;20018;-72
2023/10/10 09:29:34;;;;;;;13.43;4.38;;;;;;;;;;5126621;27;20019;-73
2023/10/10 09:32:00;;;;;;;13.73;4.30;;;;;;;;;;5127258;27;20027;-73
2023/10/10 09:34:28;;;;;;;14.27;5.25;;;;;;;;;;5131509;27;20038;-72
2023/10/10 09:36:57;;;;;;;14.57;4.95;;;;;;;;;;5131707;27;20019;-72
2023/10/10 09:39:36;;;;;;;14.55;4.22;;;;;;;;;;5130682;27;20094;-72
2023/10/10 09:42:07;;;;;;;9.40;3.92;;;;;;;;;;5131032;27;20110;-73
2023/10/10 09:44:53;;;;;;;9.50;3.55;;;;;;;;;;5116483;27;20068;-72
2023/10/10 09:47:40;;;;;;;9.55;4.45;;;;;;;;;;5124850;27;20405;-73
2023/10/10 09:52:57;;;;;;;9.02;4.32;;;;;;;;;;5130883;27;20427;-72
2023/10/10 10:00:46;;;;;;;11.50;4.75;;;;;;;;;;5123433;27;20060;-72
2023/10/10 10:05:58;;;;;;;12.23;4.22;;;;;;;;;;5130963;27;20026;-72
2023/10/10 10:08:24;;;;;;;12.68;4.55;;;;;;;;;;5130133;27;20098;-72
2023/10/10 10:10:58;;;;;;;8.48;4.65;;;;;;;;;;5130399;27;20038;-72
2023/10/10 10:13:37;;;;;;;14.20;4.95;;;;;;;;;;5126663;27;20029;-72
2023/10/10 10:16:25;;;;;;;8.65;4.60;;;;;;;;;;5123603;27;20039;-72
2023/10/10 10:18:52;;;;;;;11.82;5.32;;;;;;;;;;5130080;27;20019;-72
2023/10/10 10:21:20;;;;;;;8.82;4.35;;;;;;;;;;5130359;27;20493;-72
2023/10/10 10:23:56;;;;;;;11.65;4.75;;;;;;;;;;5130049;27;20027;-72
2023/10/10 10:26:32;;;;;;;17.80;4.95;;;;;;;;;;5128194;27;20169;-72
2023/10/10 10:28:58;;;;;;;9.15;4.15;;;;;;;;;;5125537;27;20090;-72
2023/10/10 10:31:30;;;;;;;14.02;5.22;;;;;;;;;;5124408;27;20154;-73
2023/10/10 10:34:08;;;;;;;11.90;4.28;;;;;;;;;;5119628;27;20027;-72
2023/10/10 10:36:41;;;;;;;9.70;4.00;;;;;;;;;;5129957;27;20359;-72
2023/10/10 10:39:25;;;;;;;11.52;4.65;;;;;;;;;;5124242;27;20035;-72
2023/10/10 10:41:53;;;;;;;11.23;4.85;;;;;;;;;;5129416;27;20061;-72
2023/10/10 10:44:43;;;;;;;10.50;4.25;;;;;;;;;;5126625;27;20104;-72
2023/10/10 10:47:09;;;;;;;;;;;;;;;;;;5130527;27;20019;-72
2023/10/10 10:49:37;;;;;;;14.07;4.40;;;;;;;;;;5129028;27;19904;-73
2023/10/10 10:52:17;;;;;;;8.75;3.55;;;;;;;;;;5129446;27;20023;-73
2023/10/10 10:54:43;;;;;;;4.82;2.28;;;;;;;;;;5130386;27;20056;-73
2023/10/10 10:57:13;;;;;;;14.52;3.42;;;;;;;;;;5129991;27;20512;-72
2023/10/10 10:59:54;;;;;;;10.32;4.68;;;;;;;;;;5126215;27;20069;-72
2023/10/10 11:02:30;;;;;;;14.27;4.35;;;;;;;;;;5129949;27;20026;-72
2023/10/10 11:04:55;;;;;;;20.45;4.43;;;;;;;;;;5127142;27;20063;-73
2023/10/10 11:07:28;;;;;;;8.20;3.35;;;;;;;;;;5129913;27;20063;-73
2023/10/10 11:09:54;;;;;;;11.00;3.78;;;;;;;;;;5129303;27;20466;-72
2023/10/10 11:12:31;;;;;;;15.20;4.82;;;;;;;;;;5129740;27;20011;-72
2023/10/10 11:14:56;;;;;;;15.30;4.30;;;;;;;;;;5128643;27;20041;-72
2023/10/10 11:17:21;;;;;;;12.73;4.47;;;;;;;;;;5129990;27;20023;-72
2023/10/10 11:19:48;;;;;;;6.30;2.30;;;;;;;;;;5127459;27;20072;-72
2023/10/10 11:22:16;;;;;;;13.57;4.32;;;;;;;;;;5128688;27;20023;-72
2023/10/10 11:24:47;;;;;;;9.00;3.53;;;;;;;;;;5128759;27;20012;-72
2023/10/10 11:29:50;;;;;;;12.10;4.10;;;;;;;;;;5133097;27;20386;-73
2023/10/10 11:32:16;;;;;;;10.65;3.38;;;;;;;;;;5126404;27;20323;-73
2023/10/10 11:34:44;;;;;;;13.43;4.00;;;;;;;;;;5133932;27;20038;-73
2023/10/10 11:37:32;;;;;;;9.57;3.90;;;;;;;;;;5126331;27;20272;-73
2023/10/10 11:43:03;;;;;;;14.77;3.17;;;;;;;;;;5132916;27;20027;-73
2023/10/10 11:45:29;;;;;;;10.40;3.78;;;;;;;;;;5132314;27;20026;-73
2023/10/10 11:48:00;;;;;;;8.10;3.63;;;;;;;;;;5131689;27;20035;-73
2023/10/10 11:50:29;;;;;;;9.73;3.88;;;;;;;;;;5133472;27;20098;-73
2023/10/10 11:52:58;;;;;;;13.70;3.83;;;;;;;;;;5133025;27;20027;-73
2023/10/10 11:55:24;;;;;;;11.27;4.65;;;;;;;;;;5126760;27;20057;-73
2023/10/10 11:57:49;;;;;;;10.85;4.38;;;;;;;;;;5133001;27;20007;-73
2023/10/10 12:00:21;;;;;;;12.50;4.28;;;;;;;;;;5132936;27;20039;-72
2023/10/10 12:02:48;;;;;;;12.05;4.30;;;;;;;;;;5131406;27;20030;-72
2023/10/10 12:06:14;;;;;;;13.32;4.50;;;;;;;;;;5133080;27;20020;-72
2023/10/10 12:08:07;;;;;;;10.98;2.85;;;;;;;;;;5113587;27;20016;-73
2023/10/10 12:10:47;;;;;;;10.95;3.80;;;;;;;;;;5132724;27;20008;-72
2023/10/10 12:13:19;;;;;;;13.80;3.65;;;;;;;;;;5131960;27;20038;-72
2023/10/10 12:15:45;;;;;;;10.60;4.50;;;;;;;;;;5132846;27;20023;-72
2023/10/10 12:18:10;;;;;;;16.48;4.93;;;;;;;;;;5132727;27;20023;-73
2023/10/10 12:20:43;;;;;;;9.35;4.32;;;;;;;;;;5132774;27;20015;-73
2023/10/10 12:23:09;;;;;;;12.95;3.70;;;;;;;;;;5126018;27;20049;-73
2023/10/10 12:25:40;;;;;;;12.15;4.38;;;;;;;;;;5132890;27;20474;-73
2023/10/10 12:28:06;;;;;;;9.40;2.95;;;;;;;;;;5132362;27;20023;-72
2023/10/10 12:30:31;;;;;;;11.27;4.10;;;;;;;;;;5131832;27;20015;-72
2023/10/10 12:32:56;;;;;;;11.27;4.20;;;;;;;;;;5126730;27;20042;-73
2023/10/10 12:35:25;;;;;;;11.13;4.67;;;;;;;;;;5130434;27;20264;-73
2023/10/10 12:37:57;;;;;;;8.25;3.03;;;;;;;;;;5131995;27;20022;-73
2023/10/10 12:40:23;;;;;;;13.90;4.30;;;;;;;;;;5126524;27;20019;-73
2023/10/10 12:42:48;;;;;;;9.97;4.20;;;;;;;;;;5132023;27;20038;-73
2023/10/10 12:45:14;;;;;;;10.10;3.88;;;;;;;;;;5132342;27;20735;-73
2023/10/10 12:47:40;;;;;;;13.00;4.57;;;;;;;;;;5131348;27;20037;-73
2023/10/10 12:50:13;;;;;;;9.40;4.20;;;;;;;;;;5130536;27;20015;-73
2023/10/10 12:52:45;;;;;;;16.15;4.30;;;;;;;;;;5130378;27;20019;-73
2023/10/10 12:55:10;;;;;;;7.45;3.70;;;;;;;;;;5132062;27;20007;-73
2023/10/10 12:57:36;;;;;;;9.97;4.23;;;;;;;;;;5131998;27;20011;-73
2023/10/10 13:00:23;;;;;;;11.90;4.32;;;;;;;;;;5129620;27;20276;-73
2023/10/10 13:02:46;;;;;;;8.90;3.92;;;;;;;;;;5131641;27;20023;-73
2023/10/10 13:05:12;;;;;;;14.13;4.53;;;;;;;;;;5131023;27;20012;-73
2023/10/10 13:07:39;;;;;;;12.00;4.45;;;;;;;;;;5129093;27;20549;-73
2023/10/10 13:10:10;;;;;;;11.13;3.58;;;;;;;;;;5131178;27;20015;-73
2023/10/10 13:12:36;;;;;;;6.40;1.95;;;;;;;;;;5131864;27;20011;-73
2023/10/10 13:15:18;;;;;;;12.23;4.28;;;;;;;;;;5130162;27;20023;-73
2023/10/10 13:18:19;;;;;;;11.75;4.03;;;;;;;;;;5130101;27;20456;-73
2023/10/10 13:20:41;;;;;;;16.98;4.63;;;;;;;;;;5129557;27;20496;-73
2023/10/10 13:23:06;;;;;;;11.73;4.07;;;;;;;;;;5131129;27;20042;-73
2023/10/10 13:25:37;;;;;;;15.85;4.82;;;;;;;;;;5131427;27;20011;-73
2023/10/10 13:28:09;;;;;;;15.13;4.65;;;;;;;;;;5130874;27;20015;-73
2023/10/10 13:30:34;;;;;;;9.40;4.25;;;;;;;;;;5130637;27;20335;-73
2023/10/10 13:33:01;;;;;;;11.10;4.30;;;;;;;;;;5129408;27;20025;-74
2023/10/10 13:35:26;;;;;;;13.13;4.32;;;;;;;;;;5128482;27;20102;-73
2023/10/10 13:37:51;;;;;;;17.98;4.40;;;;;;;;;;5118651;27;20098;-73
2023/10/10 13:40:22;;;;;;;10.23;3.80;;;;;;;;;;5128092;27;20485;-73
2023/10/10 13:42:47;;;;;;;14.15;3.85;;;;;;;;;;5128343;27;20011;-73
2023/10/10 13:45:18;;;;;;;23.43;4.03;;;;;;;;;;5129200;27;20056;-73
2023/10/10 13:47:48;;;;;;;17.95;3.20;;;;;;;;;;5126869;27;20272;-72
2023/10/10 13:50:28;;;;;;;12.25;4.30;;;;;;;;;;5129975;27;20019;-74
2023/10/10 13:52:53;;;;;;;11.05;3.45;;;;;;;;;;5122793;27;20350;-73
2023/10/10 13:55:19;;;;;;;6.10;2.35;;;;;;;;;;5125143;27;20022;-73
2023/10/10 13:57:44;;;;;;;12.15;3.90;;;;;;;;;;5127886;27;20537;-73
2023/10/10 14:00:28;;;;;;;16.33;4.90;;;;;;;;;;5123172;27;20516;-73
2023/10/10 14:02:59;;;;;;;11.18;4.18;;;;;;;;;;5130435;27;20656;-73
2023/10/10 14:05:25;;;;;;;16.65;4.47;;;;;;;;;;5130297;27;20084;-74
2023/10/10 14:07:51;;;;;;;10.82;4.65;;;;;;;;;;5128599;27;20011;-74
2023/10/10 14:10:20;;;;;;;18.23;4.22;;;;;;;;;;5130281;27;20015;-74
2023/10/10 14:12:45;;;;;;;9.98;3.75;;;;;;;;;;5123259;27;20362;-74
2023/10/10 14:15:11;;;;;;;13.17;4.47;;;;;;;;;;5130500;27;20019;-74
2023/10/10 14:17:36;;;;;;;10.00;3.90;;;;;;;;;;5130902;27;20249;-74
2023/10/10 14:20:09;;;;;;;12.32;4.28;;;;;;;;;;5129283;27;20019;-74
2023/10/10 14:22:38;;;;;;;10.65;3.70;;;;;;;;;;5130263;27;20018;-74
2023/10/10 14:25:04;;;;;;;13.27;3.72;;;;;;;;;;5127507;27;20015;-74
2023/10/10 14:27:29;;;;;;;20.98;3.63;;;;;;;;;;5130067;27;20606;-74
2023/10/10 14:29:54;;;;;;;18.30;4.55;;;;;;;;;;5124905;27;20026;-74
2023/10/10 14:32:19;;;;;;;19.37;5.27;;;;;;;;;;5130052;27;20435;-74
2023/10/10 14:34:45;;;;;;;14.27;3.90;;;;;;;;;;5130614;27;20012;-74
2023/10/10 14:37:11;;;;;;;12.95;5.20;;;;;;;;;;5124276;27;20015;-74
2023/10/10 14:39:44;;;;;;;13.73;4.60;;;;;;;;;;5128211;27;20065;-74
2023/10/10 14:42:10;;;;;;;9.50;4.13;;;;;;;;;;5129621;28;20027;-74
2023/10/10 14:44:40;;;;;;;8.32;4.00;;;;;;;;;;5129989;27;20007;-74
2023/10/10 14:47:06;;;;;;;15.98;4.72;;;;;;;;;;5129450;27;20022;-74
2023/10/10 14:49:31;;;;;;;15.13;5.07;;;;;;;;;;5129947;27;20354;-74
2023/10/10 14:52:02;;;;;;;16.52;4.18;;;;;;;;;;5127705;27;20090;-74
2023/10/10 14:54:28;;;;;;;14.27;4.00;;;;;;;;;;5128443;27;20474;-74
2023/10/10 14:56:54;;;;;;;17.53;4.40;;;;;;;;;;5128775;27;20051;-74
2023/10/10 14:59:31;;;;;;;15.27;3.67;;;;;;;;;;5130028;27;20232;-74
2023/10/10 15:01:59;;;;;;;11.75;4.07;;;;;;;;;;5134019;27;20079;-74
2023/10/10 15:04:28;;;;;;;12.98;3.95;;;;;;;;;;5130746;27;20087;-74
2023/10/10 15:06:54;;;;;;;22.00;5.20;;;;;;;;;;5132453;27;20026;-74
2023/10/10 15:09:20;;;;;;;14.20;3.97;;;;;;;;;;5136183;27;20015;-73
2023/10/10 15:11:46;;;;;;;21.63;4.30;;;;;;;;;;5130312;27;20022;-74
2023/10/10 15:14:11;;;;;;;13.05;4.20;;;;;;;;;;5128475;27;20158;-74
2023/10/10 15:16:37;;;;;;;23.95;4.47;;;;;;;;;;5133172;27;20019;-74
2023/10/10 15:19:06;;;;;;;14.07;4.75;;;;;;;;;;5132627;27;20388;-74
2023/10/10 15:21:32;;;;;;;13.07;4.90;;;;;;;;;;5132012;27;20019;-74
2023/10/10 15:23:58;;;;;;;15.00;4.93;;;;;;;;;;5132653;27;20027;-74
2023/10/10 15:26:23;;;;;;;12.02;4.40;;;;;;;;;;5137500;27;20407;-74
2023/10/10 15:28:52;;;;;;;17.88;4.43;;;;;;;;;;5131531;27;20016;-74
2023/10/10 15:31:19;;;;;;;20.00;4.70;;;;;;;;;;5130178;27;20007;-74
2023/10/10 15:33:44;;;;;;;13.20;4.50;;;;;;;;;;5119422;27;20118;-74
2023/10/10 15:36:11;;;;;;;13.63;4.38;;;;;;;;;;5123798;27;20130;-74
2023/10/10 15:38:37;;;;;;;15.75;4.60;;;;;;;;;;5131912;27;20084;-74
2023/10/10 15:41:08;;;;;;;17.75;4.65;;;;;;;;;;5118538;27;20478;-74
2023/10/10 15:43:35;;;;;;;19.42;4.38;;;;;;;;;;5122784;27;20536;-74
2023/10/10 15:46:06;;;;;;;12.27;5.43;;;;;;;;;;5127901;27;20115;-74
2023/10/10 15:48:42;;;;;;;10.32;4.18;;;;;;;;;;5133217;27;20474;-74
2023/10/10 15:51:08;;;;;;;14.98;4.63;;;;;;;;;;5132220;27;20071;-74
2023/10/10 15:53:38;;;;;;;14.90;5.50;;;;;;;;;;5135776;27;20019;-73
2023/10/10 15:56:14;;;;;;;19.27;4.40;;;;;;;;;;5130597;27;20096;-74
2023/10/10 15:58:43;;;;;;;12.07;4.30;;;;;;;;;;5128341;27;20402;-73
2023/10/10 16:01:09;;;;;;;12.85;5.28;;;;;;;;;;5118028;27;20038;-73
2023/10/10 16:03:34;;;;;;;19.85;4.88;;;;;;;;;;5128481;27;20031;-73
2023/10/10 16:06:07;;;;;;;13.77;4.93;;;;;;;;;;5133232;27;20029;-74
2023/10/10 16:08:32;;;;;;;15.88;5.00;;;;;;;;;;5128421;27;20015;-74
2023/10/10 16:10:58;;;;;;;16.70;5.05;;;;;;;;;;5128562;27;20023;-73
2023/10/10 16:13:23;;;;;;;17.38;6.25;;;;;;;;;;5132485;27;20493;-73
2023/10/10 16:15:48;;;;;;;13.35;4.93;;;;;;;;;;5131762;27;20023;-73
2023/10/10 16:18:15;;;;;;;13.03;4.10;;;;;;;;;;5132813;27;20019;-73
2023/10/10 16:20:40;;;;;;;19.40;5.97;;;;;;;;;;5132714;27;20019;-74
2023/10/10 16:23:07;;;;;;;14.40;5.70;;;;;;;;;;5135370;27;20031;-74
2023/10/10 16:25:36;;;;;;;12.40;5.00;;;;;;;;;;5128867;27;20766;-74
2023/10/10 16:28:02;;;;;;;17.27;5.20;;;;;;;;;;5129229;27;20015;-74
2023/10/10 16:30:27;;;;;;;14.70;5.45;;;;;;;;;;5130945;27;20017;-74
2023/10/10 16:32:52;;;;;;;18.05;5.85;;;;;;;;;;5132361;27;20038;-74
2023/10/10 16:35:20;;;;;;;26.00;5.68;;;;;;;;;;5129161;27;20470;-73
2023/10/10 16:37:45;;;;;;;9.90;4.50;;;;;;;;;;5132387;27;20019;-74
2023/10/10 16:40:11;;;;;;;18.83;5.03;;;;;;;;;;5132568;27;20068;-74
2023/10/10 16:42:37;;;;;;;14.07;5.50;;;;;;;;;;5125448;27;20018;-73
2023/10/10 16:45:02;;;;;;;37.83;7.03;;;;;;;;;;5117473;27;20438;-74
2023/10/10 16:47:27;;;;;;;44.08;7.45;;;;;;;;;;5120025;27;20025;-73
2023/10/10 16:49:53;;;;;;;58.20;9.23;;;;;;;;;;5125118;27;20042;-74
2023/10/10 16:52:19;;;;;;;37.47;7.00;;;;;;;;;;5114798;27;20019;-74
2023/10/10 16:54:50;;;;;;;53.20;9.30;;;;;;;;;;5120710;27;20068;-74
2023/10/10 16:57:16;;;;;;;41.20;8.25;;;;;;;;;;5119602;27;20418;-74
2023/10/10 16:59:42;;;;;;;41.35;8.15;;;;;;;;;;5114657;27;20065;-74
2023/10/10 17:02:08;;;;;;;23.02;6.55;;;;;;;;;;5120492;27;20015;-74